sensor_id;sensor_type;location;lat;lon;timestamp;temperature;humidity
32334;DHT22;18810;53.040;8.850;2022-12-29T00:01:25;9.50;99.90
32334;DHT22;18810;53.040;8.850;2022-12-29T00:03:51;9.50;99.90
32334;DHT22;18810;53.040;8.850;2022-12-29T00:06:17;9.50;99.90
32334;DHT22;18810;53.040;8.850;2022-12-29T00:08:42;9.40;99.90
32334;DHT22;18810;53.040;8.850;2022-12-29T00:11:11;9.50;99.90
32334;DHT22;18810;53.040;8.850;2022-12-29T00:13:37;9.50;99.90
32334;DHT22;18810;53.040;8.850;2022-12-29T00:16:21;9.50;99.90
32334;DHT22;18810;53.040;8.850;2022-12-29T00:18:47;9.50;99.90
32334;DHT22;18810;53.040;8.850;2022-12-29T00:21:18;9.60;99.90
32334;DHT22;18810;53.040;8.850;2022-12-29T00:24:03;9.70;99.90
32334;DHT22;18810;53.040;8.850;2022-12-29T00:27:09;9.80;99.90
32334;DHT22;18810;53.040;8.850;2022-12-29T00:29:54;9.70;99.90
32334;DHT22;18810;53.040;8.850;2022-12-29T00:32:38;9.80;99.90
32334;DHT22;18810;53.040;8.850;2022-12-29T00:35:30;9.90;99.90
32334;DHT22;18810;53.040;8.850;2022-12-29T00:38:00;9.90;99.90
32334;DHT22;18810;53.040;8.850;2022-12-29T00:40:44;10.00;99.90
32334;DHT22;18810;53.040;8.850;2022-12-29T00:43:28;9.90;99.90
32334;DHT22;18810;53.040;8.850;2022-12-29T00:46:13;9.90;99.90
32334;DHT22;18810;53.040;8.850;2022-12-29T00:48:38;9.90;99.90
32334;DHT22;18810;53.040;8.850;2022-12-29T00:51:22;10.00;99.90
32334;DHT22;18810;53.040;8.850;2022-12-29T00:53:49;10.00;99.90
32334;DHT22;18810;53.040;8.850;2022-12-29T00:56:14;10.00;99.90
32334;DHT22;18810;53.040;8.850;2022-12-29T00:58:40;10.00;99.90
32334;DHT22;18810;53.040;8.850;2022-12-29T01:01:07;10.10;99.90
32334;DHT22;18810;53.040;8.850;2022-12-29T01:03:35;10.10;99.90
32334;DHT22;18810;53.040;8.850;2022-12-29T01:06:02;10.10;99.90
32334;DHT22;18810;53.040;8.850;2022-12-29T01:08:29;10.00;99.90
32334;DHT22;18810;53.040;8.850;2022-12-29T01:11:08;10.00;99.90
32334;DHT22;18810;53.040;8.850;2022-12-29T01:13:35;10.10;99.90
32334;DHT22;18810;53.040;8.850;2022-12-29T01:16:02;10.20;99.90
32334;DHT22;18810;53.040;8.850;2022-12-29T01:18:28;10.20;99.90
32334;DHT22;18810;53.040;8.850;2022-12-29T01:21:02;10.20;99.90
32334;DHT22;18810;53.040;8.850;2022-12-29T01:23:28;10.20;99.90
32334;DHT22;18810;53.040;8.850;2022-12-29T01:25:54;10.20;99.90
32334;DHT22;18810;53.040;8.850;2022-12-29T01:28:20;10.20;99.90
32334;DHT22;18810;53.040;8.850;2022-12-29T01:30:46;10.20;99.90
32334;DHT22;18810;53.040;8.850;2022-12-29T01:33:11;10.20;99.90
32334;DHT22;18810;53.040;8.850;2022-12-29T01:35:37;10.20;99.90
32334;DHT22;18810;53.040;8.850;2022-12-29T01:38:03;10.30;99.90
32334;DHT22;18810;53.040;8.850;2022-12-29T01:40:32;10.40;99.90
32334;DHT22;18810;53.040;8.850;2022-12-29T01:42:58;10.40;99.90
32334;DHT22;18810;53.040;8.850;2022-12-29T01:45:23;10.30;99.90
32334;DHT22;18810;53.040;8.850;2022-12-29T01:47:55;10.30;99.90
32334;DHT22;18810;53.040;8.850;2022-12-29T01:53:14;10.40;99.90
32334;DHT22;18810;53.040;8.850;2022-12-29T01:55:46;10.40;99.90
32334;DHT22;18810;53.040;8.850;2022-12-29T01:58:14;10.40;99.90
32334;DHT22;18810;53.040;8.850;2022-12-29T02:00:41;10.40;99.90
32334;DHT22;18810;53.040;8.850;2022-12-29T02:03:06;10.50;99.90
32334;DHT22;18810;53.040;8.850;2022-12-29T02:08:31;10.60;99.90
32334;DHT22;18810;53.040;8.850;2022-12-29T02:10:59;10.60;99.90
32334;DHT22;18810;53.040;8.850;2022-12-29T02:13:26;10.60;99.90
32334;DHT22;18810;53.040;8.850;2022-12-29T02:23:54;10.60;99.90
32334;DHT22;18810;53.040;8.850;2022-12-29T02:30:04;10.70;99.90
32334;DHT22;18810;53.040;8.850;2022-12-29T02:32:52;10.70;99.90
32334;DHT22;18810;53.040;8.850;2022-12-29T02:40:51;10.80;99.90
32334;DHT22;18810;53.040;8.850;2022-12-29T02:43:23;10.80;99.90
32334;DHT22;18810;53.040;8.850;2022-12-29T02:48:47;10.80;99.90
32334;DHT22;18810;53.040;8.850;2022-12-29T02:51:25;10.80;99.90
32334;DHT22;18810;53.040;8.850;2022-12-29T02:53:55;10.80;99.90
32334;DHT22;18810;53.040;8.850;2022-12-29T02:56:39;10.80;99.90
32334;DHT22;18810;53.040;8.850;2022-12-29T02:59:05;10.70;99.90
32334;DHT22;18810;53.040;8.850;2022-12-29T03:01:39;10.80;99.90
32334;DHT22;18810;53.040;8.850;2022-12-29T03:04:40;10.80;99.90
32334;DHT22;18810;53.040;8.850;2022-12-29T03:12:50;10.90;99.90
32334;DHT22;18810;53.040;8.850;2022-12-29T03:15:46;10.80;99.90
32334;DHT22;18810;53.040;8.850;2022-12-29T03:21:32;10.80;99.90
32334;DHT22;18810;53.040;8.850;2022-12-29T03:24:24;10.90;99.90
32334;DHT22;18810;53.040;8.850;2022-12-29T03:26:53;10.90;99.90
32334;DHT22;18810;53.040;8.850;2022-12-29T03:29:20;10.90;99.90
32334;DHT22;18810;53.040;8.850;2022-12-29T03:31:48;10.90;99.90
32334;DHT22;18810;53.040;8.850;2022-12-29T03:34:16;10.90;99.90
32334;DHT22;18810;53.040;8.850;2022-12-29T03:36:50;10.90;99.90
32334;DHT22;18810;53.040;8.850;2022-12-29T03:39:19;10.90;99.90
32334;DHT22;18810;53.040;8.850;2022-12-29T03:41:46;10.80;99.90
32334;DHT22;18810;53.040;8.850;2022-12-29T03:44:14;10.80;99.90
32334;DHT22;18810;53.040;8.850;2022-12-29T03:46:40;10.80;99.90
32334;DHT22;18810;53.040;8.850;2022-12-29T03:49:05;10.80;99.90
32334;DHT22;18810;53.040;8.850;2022-12-29T03:51:31;10.70;99.90
32334;DHT22;18810;53.040;8.850;2022-12-29T03:53:57;10.70;99.90
32334;DHT22;18810;53.040;8.850;2022-12-29T03:56:22;10.60;99.90
32334;DHT22;18810;53.040;8.850;2022-12-29T03:58:48;10.60;99.90
32334;DHT22;18810;53.040;8.850;2022-12-29T04:01:14;10.70;99.90
32334;DHT22;18810;53.040;8.850;2022-12-29T04:03:39;10.70;99.90
32334;DHT22;18810;53.040;8.850;2022-12-29T04:06:05;10.50;99.90
32334;DHT22;18810;53.040;8.850;2022-12-29T04:08:31;10.40;99.90
32334;DHT22;18810;53.040;8.850;2022-12-29T04:10:57;10.40;99.90
32334;DHT22;18810;53.040;8.850;2022-12-29T04:13:23;10.40;99.90
32334;DHT22;18810;53.040;8.850;2022-12-29T04:15:48;10.40;99.90
32334;DHT22;18810;53.040;8.850;2022-12-29T04:18:14;10.30;99.90
32334;DHT22;18810;53.040;8.850;2022-12-29T04:20:41;10.30;99.90
32334;DHT22;18810;53.040;8.850;2022-12-29T04:23:30;10.30;99.90
32334;DHT22;18810;53.040;8.850;2022-12-29T04:25:56;10.30;99.90
32334;DHT22;18810;53.040;8.850;2022-12-29T04:28:21;10.30;99.90
32334;DHT22;18810;53.040;8.850;2022-12-29T04:30:47;10.30;99.90
32334;DHT22;18810;53.040;8.850;2022-12-29T04:33:13;10.30;99.90
32334;DHT22;18810;53.040;8.850;2022-12-29T04:35:39;10.30;99.90
32334;DHT22;18810;53.040;8.850;2022-12-29T04:38:05;10.30;99.90
32334;DHT22;18810;53.040;8.850;2022-12-29T04:40:30;10.30;99.90
32334;DHT22;18810;53.040;8.850;2022-12-29T04:42:56;10.40;99.90
32334;DHT22;18810;53.040;8.850;2022-12-29T04:45:22;10.40;99.90
32334;DHT22;18810;53.040;8.850;2022-12-29T04:47:48;10.40;99.90
32334;DHT22;18810;53.040;8.850;2022-12-29T04:50:13;10.50;99.90
32334;DHT22;18810;53.040;8.850;2022-12-29T04:52:39;10.50;99.90
32334;DHT22;18810;53.040;8.850;2022-12-29T04:55:06;10.50;99.90
32334;DHT22;18810;53.040;8.850;2022-12-29T04:57:31;10.50;99.90
32334;DHT22;18810;53.040;8.850;2022-12-29T04:59:57;10.50;99.90
32334;DHT22;18810;53.040;8.850;2022-12-29T05:02:23;10.60;99.90
32334;DHT22;18810;53.040;8.850;2022-12-29T05:04:49;10.60;99.90
32334;DHT22;18810;53.040;8.850;2022-12-29T05:07:15;10.60;99.90
32334;DHT22;18810;53.040;8.850;2022-12-29T05:09:41;10.70;99.90
32334;DHT22;18810;53.040;8.850;2022-12-29T05:12:07;10.70;99.90
32334;DHT22;18810;53.040;8.850;2022-12-29T05:14:32;10.60;99.90
32334;DHT22;18810;53.040;8.850;2022-12-29T05:16:58;10.60;99.90
32334;DHT22;18810;53.040;8.850;2022-12-29T05:19:24;10.60;99.90
32334;DHT22;18810;53.040;8.850;2022-12-29T05:21:49;10.50;99.90
32334;DHT22;18810;53.040;8.850;2022-12-29T05:24:15;10.50;99.90
32334;DHT22;18810;53.040;8.850;2022-12-29T05:26:41;10.40;99.90
32334;DHT22;18810;53.040;8.850;2022-12-29T05:29:07;10.30;99.90
32334;DHT22;18810;53.040;8.850;2022-12-29T05:31:33;10.20;99.90
32334;DHT22;18810;53.040;8.850;2022-12-29T05:34:01;10.20;99.90
32334;DHT22;18810;53.040;8.850;2022-12-29T05:36:27;10.20;99.90
32334;DHT22;18810;53.040;8.850;2022-12-29T05:38:52;10.30;99.90
32334;DHT22;18810;53.040;8.850;2022-12-29T05:41:18;10.30;99.90
32334;DHT22;18810;53.040;8.850;2022-12-29T05:43:44;10.30;99.90
32334;DHT22;18810;53.040;8.850;2022-12-29T05:46:10;10.30;99.90
32334;DHT22;18810;53.040;8.850;2022-12-29T05:48:36;10.40;99.90
32334;DHT22;18810;53.040;8.850;2022-12-29T05:51:01;10.30;99.90
32334;DHT22;18810;53.040;8.850;2022-12-29T05:53:27;10.40;99.90
32334;DHT22;18810;53.040;8.850;2022-12-29T05:55:53;10.40;99.90
32334;DHT22;18810;53.040;8.850;2022-12-29T05:58:19;10.30;99.90
32334;DHT22;18810;53.040;8.850;2022-12-29T06:00:44;10.40;99.90
32334;DHT22;18810;53.040;8.850;2022-12-29T06:03:10;10.40;99.90
32334;DHT22;18810;53.040;8.850;2022-12-29T06:05:36;10.40;99.90
32334;DHT22;18810;53.040;8.850;2022-12-29T06:08:02;10.50;99.90
32334;DHT22;18810;53.040;8.850;2022-12-29T06:10:28;10.50;99.90
32334;DHT22;18810;53.040;8.850;2022-12-29T06:12:53;10.60;99.90
32334;DHT22;18810;53.040;8.850;2022-12-29T06:15:19;10.60;99.90
32334;DHT22;18810;53.040;8.850;2022-12-29T06:17:45;10.60;99.90
32334;DHT22;18810;53.040;8.850;2022-12-29T06:20:11;10.70;99.90
32334;DHT22;18810;53.040;8.850;2022-12-29T06:22:37;10.70;99.90
32334;DHT22;18810;53.040;8.850;2022-12-29T06:25:03;10.70;99.90
32334;DHT22;18810;53.040;8.850;2022-12-29T06:27:31;10.70;99.90
32334;DHT22;18810;53.040;8.850;2022-12-29T06:29:56;10.70;99.90
32334;DHT22;18810;53.040;8.850;2022-12-29T06:32:22;10.70;99.90
32334;DHT22;18810;53.040;8.850;2022-12-29T06:34:48;10.70;99.90
32334;DHT22;18810;53.040;8.850;2022-12-29T06:37:14;10.60;99.90
32334;DHT22;18810;53.040;8.850;2022-12-29T06:39:40;10.60;99.90
32334;DHT22;18810;53.040;8.850;2022-12-29T06:42:06;10.60;99.90
32334;DHT22;18810;53.040;8.850;2022-12-29T06:44:31;10.60;99.90
32334;DHT22;18810;53.040;8.850;2022-12-29T06:46:57;10.50;99.90
32334;DHT22;18810;53.040;8.850;2022-12-29T06:49:23;10.50;99.90
32334;DHT22;18810;53.040;8.850;2022-12-29T06:51:49;10.50;99.90
32334;DHT22;18810;53.040;8.850;2022-12-29T06:54:14;10.50;99.90
32334;DHT22;18810;53.040;8.850;2022-12-29T06:56:40;10.40;99.90
32334;DHT22;18810;53.040;8.850;2022-12-29T06:59:06;10.30;99.90
32334;DHT22;18810;53.040;8.850;2022-12-29T07:01:32;10.30;99.90
32334;DHT22;18810;53.040;8.850;2022-12-29T07:03:57;10.20;99.90
32334;DHT22;18810;53.040;8.850;2022-12-29T07:06:23;10.10;99.90
32334;DHT22;18810;53.040;8.850;2022-12-29T07:08:49;10.10;99.90
32334;DHT22;18810;53.040;8.850;2022-12-29T07:11:15;10.00;99.90
32334;DHT22;18810;53.040;8.850;2022-12-29T07:13:40;10.00;99.90
32334;DHT22;18810;53.040;8.850;2022-12-29T07:16:08;10.00;99.90
32334;DHT22;18810;53.040;8.850;2022-12-29T07:18:34;10.00;99.90
32334;DHT22;18810;53.040;8.850;2022-12-29T07:21:00;9.90;99.90
32334;DHT22;18810;53.040;8.850;2022-12-29T07:23:29;9.90;99.90
32334;DHT22;18810;53.040;8.850;2022-12-29T07:26:06;9.90;99.90
32334;DHT22;18810;53.040;8.850;2022-12-29T07:28:33;9.80;99.90
32334;DHT22;18810;53.040;8.850;2022-12-29T07:30:59;9.80;99.90
32334;DHT22;18810;53.040;8.850;2022-12-29T07:33:25;9.80;99.90
32334;DHT22;18810;53.040;8.850;2022-12-29T07:35:50;9.70;99.90
32334;DHT22;18810;53.040;8.850;2022-12-29T07:38:16;9.80;99.90
32334;DHT22;18810;53.040;8.850;2022-12-29T07:40:42;9.80;99.90
32334;DHT22;18810;53.040;8.850;2022-12-29T07:43:08;9.90;99.90
32334;DHT22;18810;53.040;8.850;2022-12-29T07:45:34;9.80;99.90
32334;DHT22;18810;53.040;8.850;2022-12-29T07:48:00;9.90;99.90
32334;DHT22;18810;53.040;8.850;2022-12-29T07:50:28;9.90;99.90
32334;DHT22;18810;53.040;8.850;2022-12-29T07:52:53;9.90;99.90
32334;DHT22;18810;53.040;8.850;2022-12-29T07:55:19;9.90;99.90
32334;DHT22;18810;53.040;8.850;2022-12-29T07:57:45;9.90;99.90
32334;DHT22;18810;53.040;8.850;2022-12-29T08:00:11;10.00;99.90
32334;DHT22;18810;53.040;8.850;2022-12-29T08:02:36;10.00;99.90
32334;DHT22;18810;53.040;8.850;2022-12-29T08:05:02;9.90;99.90
32334;DHT22;18810;53.040;8.850;2022-12-29T08:07:28;9.90;99.90
32334;DHT22;18810;53.040;8.850;2022-12-29T08:09:54;9.80;99.90
32334;DHT22;18810;53.040;8.850;2022-12-29T08:12:19;9.80;99.90
32334;DHT22;18810;53.040;8.850;2022-12-29T08:14:45;9.80;99.90
32334;DHT22;18810;53.040;8.850;2022-12-29T08:17:11;9.80;99.90
32334;DHT22;18810;53.040;8.850;2022-12-29T08:19:37;9.90;99.90
32334;DHT22;18810;53.040;8.850;2022-12-29T08:22:03;9.90;99.90
32334;DHT22;18810;53.040;8.850;2022-12-29T08:24:28;9.80;99.90
32334;DHT22;18810;53.040;8.850;2022-12-29T08:26:54;9.80;99.90
32334;DHT22;18810;53.040;8.850;2022-12-29T08:29:20;9.80;99.90
32334;DHT22;18810;53.040;8.850;2022-12-29T08:31:47;9.80;99.90
32334;DHT22;18810;53.040;8.850;2022-12-29T08:34:13;9.80;99.90
32334;DHT22;18810;53.040;8.850;2022-12-29T08:36:39;9.80;99.90
32334;DHT22;18810;53.040;8.850;2022-12-29T08:39:04;9.80;99.90
32334;DHT22;18810;53.040;8.850;2022-12-29T08:41:30;10.00;99.90
32334;DHT22;18810;53.040;8.850;2022-12-29T08:43:56;10.00;99.90
32334;DHT22;18810;53.040;8.850;2022-12-29T08:46:22;10.00;99.90
32334;DHT22;18810;53.040;8.850;2022-12-29T08:48:47;10.00;99.90
32334;DHT22;18810;53.040;8.850;2022-12-29T08:51:13;10.10;99.90
32334;DHT22;18810;53.040;8.850;2022-12-29T08:53:39;10.20;99.90
32334;DHT22;18810;53.040;8.850;2022-12-29T08:56:05;10.30;99.90
32334;DHT22;18810;53.040;8.850;2022-12-29T08:58:31;10.40;99.90
32334;DHT22;18810;53.040;8.850;2022-12-29T09:00:57;10.60;99.90
32334;DHT22;18810;53.040;8.850;2022-12-29T09:03:24;10.70;99.90
32334;DHT22;18810;53.040;8.850;2022-12-29T09:05:52;10.90;99.90
32334;DHT22;18810;53.040;8.850;2022-12-29T09:08:18;10.90;99.90
32334;DHT22;18810;53.040;8.850;2022-12-29T09:10:44;11.00;99.90
32334;DHT22;18810;53.040;8.850;2022-12-29T09:13:11;11.00;99.90
32334;DHT22;18810;53.040;8.850;2022-12-29T09:15:38;10.90;99.90
32334;DHT22;18810;53.040;8.850;2022-12-29T09:18:04;10.90;99.90
32334;DHT22;18810;53.040;8.850;2022-12-29T09:20:30;11.00;99.90
32334;DHT22;18810;53.040;8.850;2022-12-29T09:22:55;11.20;99.90
32334;DHT22;18810;53.040;8.850;2022-12-29T09:25:21;11.20;99.90
32334;DHT22;18810;53.040;8.850;2022-12-29T09:27:50;11.20;99.90
32334;DHT22;18810;53.040;8.850;2022-12-29T09:30:18;11.00;99.90
32334;DHT22;18810;53.040;8.850;2022-12-29T09:32:44;11.30;99.90
32334;DHT22;18810;53.040;8.850;2022-12-29T09:35:11;11.40;99.90
32334;DHT22;18810;53.040;8.850;2022-12-29T09:37:37;11.30;99.90
32334;DHT22;18810;53.040;8.850;2022-12-29T09:40:04;11.20;99.90
32334;DHT22;18810;53.040;8.850;2022-12-29T09:43:37;11.20;99.90
32334;DHT22;18810;53.040;8.850;2022-12-29T09:45:47;11.30;99.90
32334;DHT22;18810;53.040;8.850;2022-12-29T09:48:19;11.30;99.90
32334;DHT22;18810;53.040;8.850;2022-12-29T09:50:50;11.40;99.90
32334;DHT22;18810;53.040;8.850;2022-12-29T09:53:48;11.40;99.90
32334;DHT22;18810;53.040;8.850;2022-12-29T09:56:19;11.00;99.90
32334;DHT22;18810;53.040;8.850;2022-12-29T09:58:54;10.80;99.90
32334;DHT22;18810;53.040;8.850;2022-12-29T10:01:43;10.50;99.90
32334;DHT22;18810;53.040;8.850;2022-12-29T10:04:09;10.30;99.90
32334;DHT22;18810;53.040;8.850;2022-12-29T10:06:51;10.00;99.90
32334;DHT22;18810;53.040;8.850;2022-12-29T10:09:29;9.90;99.90
32334;DHT22;18810;53.040;8.850;2022-12-29T10:25:57;9.60;99.90
32334;DHT22;18810;53.040;8.850;2022-12-29T10:31:18;9.50;99.90
32334;DHT22;18810;53.040;8.850;2022-12-29T10:33:48;9.60;99.90
32334;DHT22;18810;53.040;8.850;2022-12-29T10:36:35;9.90;99.90
32334;DHT22;18810;53.040;8.850;2022-12-29T10:39:26;10.40;99.90
32334;DHT22;18810;53.040;8.850;2022-12-29T10:44:45;10.70;99.90
32334;DHT22;18810;53.040;8.850;2022-12-29T10:47:20;10.50;99.90
32334;DHT22;18810;53.040;8.850;2022-12-29T10:49:48;10.40;99.90
32334;DHT22;18810;53.040;8.850;2022-12-29T10:52:16;10.40;99.90
32334;DHT22;18810;53.040;8.850;2022-12-29T10:55:02;10.30;99.90
32334;DHT22;18810;53.040;8.850;2022-12-29T10:57:41;10.50;99.90
32334;DHT22;18810;53.040;8.850;2022-12-29T11:00:18;10.50;99.90
32334;DHT22;18810;53.040;8.850;2022-12-29T11:08:18;10.80;99.90
32334;DHT22;18810;53.040;8.850;2022-12-29T11:10:46;10.90;99.90
32334;DHT22;18810;53.040;8.850;2022-12-29T11:13:58;11.10;99.90
32334;DHT22;18810;53.040;8.850;2022-12-29T11:16:03;11.30;99.90
32334;DHT22;18810;53.040;8.850;2022-12-29T11:18:39;11.40;99.90
32334;DHT22;18810;53.040;8.850;2022-12-29T11:26:50;11.30;99.90
32334;DHT22;18810;53.040;8.850;2022-12-29T11:31:47;11.20;99.90
32334;DHT22;18810;53.040;8.850;2022-12-29T11:34:30;11.20;99.90
32334;DHT22;18810;53.040;8.850;2022-12-29T11:42:09;11.20;99.90
32334;DHT22;18810;53.040;8.850;2022-12-29T11:44:42;11.20;99.90
32334;DHT22;18810;53.040;8.850;2022-12-29T11:47:28;11.20;99.90
32334;DHT22;18810;53.040;8.850;2022-12-29T11:49:58;11.20;99.90
32334;DHT22;18810;53.040;8.850;2022-12-29T11:52:27;11.20;99.90
32334;DHT22;18810;53.040;8.850;2022-12-29T11:54:55;11.10;99.90
32334;DHT22;18810;53.040;8.850;2022-12-29T11:57:22;11.20;99.90
32334;DHT22;18810;53.040;8.850;2022-12-29T11:59:53;11.30;99.90
32334;DHT22;18810;53.040;8.850;2022-12-29T12:05:39;11.30;99.90
32334;DHT22;18810;53.040;8.850;2022-12-29T12:10:46;11.20;99.90
32334;DHT22;18810;53.040;8.850;2022-12-29T12:13:28;11.20;99.90
32334;DHT22;18810;53.040;8.850;2022-12-29T12:16:08;11.20;99.90
32334;DHT22;18810;53.040;8.850;2022-12-29T12:18:47;11.20;99.90
32334;DHT22;18810;53.040;8.850;2022-12-29T12:29:43;11.20;99.90
32334;DHT22;18810;53.040;8.850;2022-12-29T12:32:22;11.20;99.90
32334;DHT22;18810;53.040;8.850;2022-12-29T12:34:49;11.20;99.90
32334;DHT22;18810;53.040;8.850;2022-12-29T12:48:22;10.90;99.90
32334;DHT22;18810;53.040;8.850;2022-12-29T12:56:04;10.50;99.90
32334;DHT22;18810;53.040;8.850;2022-12-29T13:03:52;10.60;99.90
32334;DHT22;18810;53.040;8.850;2022-12-29T13:17:58;10.50;99.90
32334;DHT22;18810;53.040;8.850;2022-12-29T13:23:12;10.00;99.90
32334;DHT22;18810;53.040;8.850;2022-12-29T13:25:49;9.80;99.90
32334;DHT22;18810;53.040;8.850;2022-12-29T13:28:21;9.70;99.90
32334;DHT22;18810;53.040;8.850;2022-12-29T13:33:37;9.60;99.90
32334;DHT22;18810;53.040;8.850;2022-12-29T13:36:35;9.50;99.90
32334;DHT22;18810;53.040;8.850;2022-12-29T13:39:16;9.40;99.90
32334;DHT22;18810;53.040;8.850;2022-12-29T13:41:49;9.30;99.90
32334;DHT22;18810;53.040;8.850;2022-12-29T13:44:43;9.30;99.90
32334;DHT22;18810;53.040;8.850;2022-12-29T13:47:36;9.20;99.90
32334;DHT22;18810;53.040;8.850;2022-12-29T13:50:06;9.30;99.90
32334;DHT22;18810;53.040;8.850;2022-12-29T13:52:43;9.20;99.90
32334;DHT22;18810;53.040;8.850;2022-12-29T13:55:37;9.30;99.90
32334;DHT22;18810;53.040;8.850;2022-12-29T13:58:12;9.30;99.90
32334;DHT22;18810;53.040;8.850;2022-12-29T14:01:07;9.40;99.90
32334;DHT22;18810;53.040;8.850;2022-12-29T14:03:43;9.50;99.90
32334;DHT22;18810;53.040;8.850;2022-12-29T14:08:38;9.50;99.90
32334;DHT22;18810;53.040;8.850;2022-12-29T14:11:09;9.50;99.90
32334;DHT22;18810;53.040;8.850;2022-12-29T14:13:38;9.60;99.90
32334;DHT22;18810;53.040;8.850;2022-12-29T14:16:05;9.60;99.90
32334;DHT22;18810;53.040;8.850;2022-12-29T14:18:33;9.60;99.90
32334;DHT22;18810;53.040;8.850;2022-12-29T14:21:31;9.60;99.90
32334;DHT22;18810;53.040;8.850;2022-12-29T14:24:28;9.70;99.90
32334;DHT22;18810;53.040;8.850;2022-12-29T14:29:51;9.60;99.90
32334;DHT22;18810;53.040;8.850;2022-12-29T14:37:33;9.50;99.90
32334;DHT22;18810;53.040;8.850;2022-12-29T14:42:29;9.60;99.90
32334;DHT22;18810;53.040;8.850;2022-12-29T14:45:07;9.60;99.90
32334;DHT22;18810;53.040;8.850;2022-12-29T14:47:39;9.50;99.90
32334;DHT22;18810;53.040;8.850;2022-12-29T14:53:03;9.50;99.90
32334;DHT22;18810;53.040;8.850;2022-12-29T14:55:40;9.50;99.90
32334;DHT22;18810;53.040;8.850;2022-12-29T14:58:28;9.60;99.90
32334;DHT22;18810;53.040;8.850;2022-12-29T15:00:55;9.60;99.90
32334;DHT22;18810;53.040;8.850;2022-12-29T15:03:43;9.60;99.90
32334;DHT22;18810;53.040;8.850;2022-12-29T15:06:14;9.50;99.90
32334;DHT22;18810;53.040;8.850;2022-12-29T15:11:20;9.60;99.90
32334;DHT22;18810;53.040;8.850;2022-12-29T15:13:46;9.70;99.90
32334;DHT22;18810;53.040;8.850;2022-12-29T15:16:32;9.70;99.90
32334;DHT22;18810;53.040;8.850;2022-12-29T15:18:59;9.70;99.90
32334;DHT22;18810;53.040;8.850;2022-12-29T15:21:30;9.80;99.90
32334;DHT22;18810;53.040;8.850;2022-12-29T15:23:57;9.70;99.90
32334;DHT22;18810;53.040;8.850;2022-12-29T15:26:23;9.70;99.90
32334;DHT22;18810;53.040;8.850;2022-12-29T15:29:01;9.40;99.90
32334;DHT22;18810;53.040;8.850;2022-12-29T15:31:26;9.30;99.90
32334;DHT22;18810;53.040;8.850;2022-12-29T15:34:01;9.20;99.90
32334;DHT22;18810;53.040;8.850;2022-12-29T15:36:29;9.10;99.90
32334;DHT22;18810;53.040;8.850;2022-12-29T15:39:20;9.10;99.90
32334;DHT22;18810;53.040;8.850;2022-12-29T15:41:54;9.10;99.90
32334;DHT22;18810;53.040;8.850;2022-12-29T15:44:39;9.20;99.90
32334;DHT22;18810;53.040;8.850;2022-12-29T15:47:13;9.00;99.90
32334;DHT22;18810;53.040;8.850;2022-12-29T15:49:43;9.00;99.90
32334;DHT22;18810;53.040;8.850;2022-12-29T15:52:09;8.90;99.90
32334;DHT22;18810;53.040;8.850;2022-12-29T15:54:36;9.00;99.90
32334;DHT22;18810;53.040;8.850;2022-12-29T15:57:03;8.90;99.90
32334;DHT22;18810;53.040;8.850;2022-12-29T15:59:31;8.90;99.90
32334;DHT22;18810;53.040;8.850;2022-12-29T16:01:59;8.90;99.90
32334;DHT22;18810;53.040;8.850;2022-12-29T16:04:28;8.80;99.90
32334;DHT22;18810;53.040;8.850;2022-12-29T16:07:02;8.90;99.90
32334;DHT22;18810;53.040;8.850;2022-12-29T16:09:34;9.00;99.90
32334;DHT22;18810;53.040;8.850;2022-12-29T16:12:06;9.00;99.90
32334;DHT22;18810;53.040;8.850;2022-12-29T16:14:39;9.20;99.90
32334;DHT22;18810;53.040;8.850;2022-12-29T16:17:05;9.20;99.90
32334;DHT22;18810;53.040;8.850;2022-12-29T16:19:39;9.20;99.90
32334;DHT22;18810;53.040;8.850;2022-12-29T16:22:24;9.10;99.90
32334;DHT22;18810;53.040;8.850;2022-12-29T16:24:55;9.10;99.90
32334;DHT22;18810;53.040;8.850;2022-12-29T16:27:43;9.00;99.90
32334;DHT22;18810;53.040;8.850;2022-12-29T16:30:22;9.10;99.90
32334;DHT22;18810;53.040;8.850;2022-12-29T16:32:53;9.10;99.90
32334;DHT22;18810;53.040;8.850;2022-12-29T16:35:24;9.20;99.90
32334;DHT22;18810;53.040;8.850;2022-12-29T16:38:18;9.20;99.90
32334;DHT22;18810;53.040;8.850;2022-12-29T16:40:57;9.30;99.90
32334;DHT22;18810;53.040;8.850;2022-12-29T16:43:27;9.30;99.90
32334;DHT22;18810;53.040;8.850;2022-12-29T16:51:12;9.30;99.90
32334;DHT22;18810;53.040;8.850;2022-12-29T16:53:40;9.40;99.90
32334;DHT22;18810;53.040;8.850;2022-12-29T16:56:23;9.40;99.90
32334;DHT22;18810;53.040;8.850;2022-12-29T16:59:38;9.30;99.90
32334;DHT22;18810;53.040;8.850;2022-12-29T17:01:38;9.30;99.90
32334;DHT22;18810;53.040;8.850;2022-12-29T17:04:06;9.30;99.90
32334;DHT22;18810;53.040;8.850;2022-12-29T17:06:33;9.30;99.90
32334;DHT22;18810;53.040;8.850;2022-12-29T17:08:59;9.30;99.90
32334;DHT22;18810;53.040;8.850;2022-12-29T17:11:30;9.20;99.90
32334;DHT22;18810;53.040;8.850;2022-12-29T17:14:36;9.30;99.90
32334;DHT22;18810;53.040;8.850;2022-12-29T17:17:05;9.30;99.90
32334;DHT22;18810;53.040;8.850;2022-12-29T17:19:34;9.30;99.90
32334;DHT22;18810;53.040;8.850;2022-12-29T17:22:01;9.40;99.90
32334;DHT22;18810;53.040;8.850;2022-12-29T17:24:28;9.30;99.90
32334;DHT22;18810;53.040;8.850;2022-12-29T17:26:57;9.30;99.90
32334;DHT22;18810;53.040;8.850;2022-12-29T17:29:38;9.30;99.90
32334;DHT22;18810;53.040;8.850;2022-12-29T17:32:06;9.30;99.90
32334;DHT22;18810;53.040;8.850;2022-12-29T17:34:35;9.30;99.90
32334;DHT22;18810;53.040;8.850;2022-12-29T17:37:00;9.40;99.90
32334;DHT22;18810;53.040;8.850;2022-12-29T17:39:26;9.40;99.90
32334;DHT22;18810;53.040;8.850;2022-12-29T17:41:52;9.30;99.90
32334;DHT22;18810;53.040;8.850;2022-12-29T17:44:19;9.30;99.90
32334;DHT22;18810;53.040;8.850;2022-12-29T17:46:47;9.30;99.90
32334;DHT22;18810;53.040;8.850;2022-12-29T17:49:15;9.30;99.90
32334;DHT22;18810;53.040;8.850;2022-12-29T17:51:42;9.40;99.90
32334;DHT22;18810;53.040;8.850;2022-12-29T17:54:20;9.50;99.90
32334;DHT22;18810;53.040;8.850;2022-12-29T17:56:46;9.50;99.90
32334;DHT22;18810;53.040;8.850;2022-12-29T17:59:12;9.50;99.90
32334;DHT22;18810;53.040;8.850;2022-12-29T18:01:39;9.60;99.90
32334;DHT22;18810;53.040;8.850;2022-12-29T18:04:05;9.50;99.90
32334;DHT22;18810;53.040;8.850;2022-12-29T18:06:30;9.60;99.90
32334;DHT22;18810;53.040;8.850;2022-12-29T18:08:56;9.60;99.90
32334;DHT22;18810;53.040;8.850;2022-12-29T18:11:26;9.60;99.90
32334;DHT22;18810;53.040;8.850;2022-12-29T18:13:52;9.60;99.90
32334;DHT22;18810;53.040;8.850;2022-12-29T18:16:18;9.60;99.90
32334;DHT22;18810;53.040;8.850;2022-12-29T18:18:44;9.50;99.90
32334;DHT22;18810;53.040;8.850;2022-12-29T18:21:15;9.40;99.90
32334;DHT22;18810;53.040;8.850;2022-12-29T18:23:42;9.30;99.90
32334;DHT22;18810;53.040;8.850;2022-12-29T18:28:40;9.10;99.90
32334;DHT22;18810;53.040;8.850;2022-12-29T18:33:50;9.10;99.90